createdAt,value
2023-03-16T00:00:27.148Z,99462.47
2023-03-16T00:02:57.463Z,99464.63
2023-03-16T00:05:26.702Z,99472.84
2023-03-16T00:07:55.340Z,99475.75
2023-03-16T00:10:27.663Z,99473.13
2023-03-16T00:12:56.801Z,99464.84
2023-03-16T00:15:25.518Z,99466.53
2023-03-16T00:17:55.309Z,99475.81
2023-03-16T00:20:25.741Z,99469.16
2023-03-16T00:22:54.690Z,99466.84
2023-03-16T00:25:24.395Z,99464.75
2023-03-16T00:27:53.229Z,99470.75
2023-03-16T00:30:22.968Z,99479.44
2023-03-16T00:32:53.969Z,99479.38
2023-03-16T00:35:24.096Z,99480.19
2023-03-16T00:37:52.866Z,99480.28
2023-03-16T00:40:22.059Z,99474.72
2023-03-16T00:42:50.680Z,99477.91
2023-03-16T00:45:19.476Z,99480.22
2023-03-16T00:47:48.236Z,99481.91
2023-03-16T00:50:17.274Z,99478.09
2023-03-16T00:52:47.465Z,99489.50
2023-03-16T00:55:16.232Z,99486.91
2023-03-16T00:57:45.001Z,99489.25
2023-03-16T01:00:17.036Z,99483.28
2023-03-16T01:02:46.587Z,99490.13
2023-03-16T01:05:16.475Z,99489.16
2023-03-16T01:07:48.325Z,99492.06
2023-03-16T01:10:18.125Z,99498.28
2023-03-16T01:12:47.558Z,99500.97
2023-03-16T01:15:16.415Z,99497.03
2023-03-16T01:17:45.193Z,99502.44
2023-03-16T01:20:19.369Z,99501.97
2023-03-16T01:22:49.526Z,99500.69
2023-03-16T01:25:18.610Z,99505.97
2023-03-16T01:27:47.742Z,99505.75
2023-03-16T01:30:16.913Z,99504.00
2023-03-16T01:32:45.950Z,99515.41
2023-03-16T01:35:15.848Z,99520.53
2023-03-16T01:37:44.843Z,99512.66
2023-03-16T01:40:18.570Z,99507.09
2023-03-16T01:42:49.491Z,99516.75
2023-03-16T01:46:18.328Z,99513.03
2023-03-16T01:49:05.649Z,99516.56
2023-03-16T01:51:43.848Z,99510.84
2023-03-16T01:54:24.969Z,99510.34
2023-03-16T01:57:04.727Z,99516.22
2023-03-16T01:59:39.520Z,99509.53
2023-03-16T02:02:11.164Z,99512.78
2023-03-16T02:04:53.501Z,99508.19
2023-03-16T02:07:29.712Z,99516.22
2023-03-16T02:10:02.667Z,99510.22
2023-03-16T02:12:33.311Z,99512.84
2023-03-16T02:15:06.102Z,99507.56
2023-03-16T02:17:37.899Z,99511.50
2023-03-16T02:20:30.018Z,99514.78
2023-03-16T02:23:00.720Z,99515.13
2023-03-16T02:25:41.718Z,99521.63
2023-03-16T02:28:23.342Z,99518.66
2023-03-16T02:30:54.708Z,99512.66
2023-03-16T02:33:25.447Z,99520.06
2023-03-16T02:35:54.464Z,99512.84
2023-03-16T02:38:23.825Z,99514.50
2023-03-16T02:41:02.725Z,99515.63
2023-03-16T02:43:37.480Z,99521.81
2023-03-16T02:46:17.201Z,99521.00
2023-03-16T02:48:55.754Z,99523.84
2023-03-16T02:51:24.662Z,99517.78
2023-03-16T02:53:53.459Z,99515.81
2023-03-16T02:56:23.683Z,99518.25
2023-03-16T02:58:52.570Z,99527.50
2023-03-16T03:01:24.093Z,99523.25
2023-03-16T03:03:52.842Z,99519.97
2023-03-16T03:06:21.708Z,99518.97
2023-03-16T03:08:50.497Z,99524.06
2023-03-16T03:11:19.823Z,99525.41
2023-03-16T03:13:49.047Z,99526.00
2023-03-16T03:16:23.865Z,99531.03
2023-03-16T03:18:54.340Z,99533.06
2023-03-16T03:21:24.931Z,99532.78
2023-03-16T03:23:54.095Z,99536.00
2023-03-16T03:26:23.096Z,99543.09
2023-03-16T03:28:52.658Z,99540.69
2023-03-16T03:31:24.325Z,99541.56
2023-03-16T03:33:54.055Z,99543.53
2023-03-16T03:36:24.151Z,99538.34
2023-03-16T03:38:54.836Z,99543.09
2023-03-16T03:41:24.218Z,99542.66
2023-03-16T03:43:54.941Z,99552.28
2023-03-16T03:46:26.006Z,99554.63
2023-03-16T03:48:54.880Z,99556.88
2023-03-16T03:51:24.110Z,99555.13
2023-03-16T03:54:06.075Z,99555.66
2023-03-16T03:56:48.711Z,99557.09
2023-03-16T03:59:18.712Z,99556.44
2023-03-16T04:02:18.432Z,99556.94
2023-03-16T04:04:52.707Z,99562.75
2023-03-16T04:07:21.644Z,99553.88
2023-03-16T04:09:53.121Z,99561.31
2023-03-16T04:12:30.811Z,99562.75
2023-03-16T04:14:59.957Z,99563.41
2023-03-16T04:17:36.266Z,99560.63
2023-03-16T04:20:16.142Z,99558.22
2023-03-16T04:22:48.476Z,99562.56
2023-03-16T04:25:19.501Z,99561.44
2023-03-16T04:27:50.026Z,99547.09
2023-03-16T04:30:20.117Z,99553.41
2023-03-16T04:32:56.417Z,99555.22
2023-03-16T04:35:25.818Z,99549.03
2023-03-16T04:37:58.233Z,99549.94
2023-03-16T04:40:35.702Z,99545.66
2023-03-16T04:43:11.243Z,99550.09
2023-03-16T04:45:40.155Z,99546.66
2023-03-16T04:48:10.749Z,99549.63
2023-03-16T04:50:41.029Z,99548.59
2023-03-16T04:53:10.219Z,99551.66
2023-03-16T04:55:39.116Z,99549.75
2023-03-16T04:58:09.136Z,99544.03
2023-03-16T05:00:40.960Z,99548.34
2023-03-16T05:03:21.762Z,99549.38
2023-03-16T05:05:52.154Z,99555.03
2023-03-16T05:08:21.301Z,99550.66
2023-03-16T05:10:52.206Z,99551.13
2023-03-16T05:13:21.756Z,99551.34
2023-03-16T05:15:54.105Z,99551.03
2023-03-16T05:18:36.309Z,99541.44
2023-03-16T05:21:06.408Z,99544.97
2023-03-16T05:23:48.884Z,99548.91
2023-03-16T05:26:18.456Z,99550.94
2023-03-16T05:28:47.914Z,99552.34
2023-03-16T05:31:19.937Z,99562.38
2023-03-16T05:34:00.213Z,99555.38
2023-03-16T05:36:29.023Z,99560.69
2023-03-16T05:39:03.818Z,99563.81
2023-03-16T05:41:38.325Z,99559.81
2023-03-16T05:44:22.943Z,99551.00
2023-03-16T05:47:06.774Z,99562.75
2023-03-16T05:49:41.398Z,99561.28
2023-03-16T05:52:17.030Z,99563.91
2023-03-16T05:54:46.703Z,99566.31
2023-03-16T05:57:16.442Z,99566.91
2023-03-16T05:59:49.002Z,99568.56
2023-03-16T06:02:19.973Z,99565.41
2023-03-16T06:04:53.741Z,99560.16
2023-03-16T06:07:22.799Z,99568.66
2023-03-16T06:09:55.238Z,99566.56
2023-03-16T06:12:24.344Z,99574.00
2023-03-16T06:14:53.199Z,99566.25
2023-03-16T06:17:22.011Z,99573.34
2023-03-16T06:19:52.572Z,99570.47
2023-03-16T06:22:21.516Z,99575.91
2023-03-16T06:24:50.416Z,99578.53
2023-03-16T06:27:20.379Z,99582.66
2023-03-16T06:30:08.705Z,99578.59
2023-03-16T06:32:39.170Z,99573.72
2023-03-16T06:35:14.637Z,99575.13
2023-03-16T06:37:49.944Z,99580.25
2023-03-16T06:40:37.472Z,99574.91
2023-03-16T06:43:07.752Z,99571.59
2023-03-16T06:45:36.602Z,99569.41
2023-03-16T06:48:07.044Z,99573.75
2023-03-16T06:50:37.293Z,99573.53
2023-03-16T06:53:07.571Z,99580.31
2023-03-16T06:55:38.283Z,99578.22
2023-03-16T06:58:07.063Z,99582.56
2023-03-16T07:00:35.802Z,99575.88
2023-03-16T07:03:05.267Z,99585.63
2023-03-16T07:05:36.489Z,99579.91
2023-03-16T07:08:06.143Z,99589.81
2023-03-16T07:10:35.404Z,99588.84
2023-03-16T07:13:04.202Z,99584.78
2023-03-16T07:15:32.931Z,99585.97
2023-03-16T07:18:02.712Z,99589.13
2023-03-16T07:20:33.152Z,99588.03
2023-03-16T07:23:07.324Z,99594.97
2023-03-16T07:25:37.377Z,99585.44
2023-03-16T07:28:06.865Z,99583.50
2023-03-16T07:30:45.930Z,99585.03
2023-03-16T07:33:22.618Z,99591.31
2023-03-16T07:35:52.076Z,99591.19
2023-03-16T07:38:22.362Z,99593.16
2023-03-16T07:40:53.280Z,99584.59
2023-03-16T07:43:24.661Z,99581.97
2023-03-16T07:45:57.237Z,99572.38
2023-03-16T07:48:27.272Z,99564.97
2023-03-16T07:51:01.854Z,99573.38
2023-03-16T07:53:33.517Z,99575.19
2023-03-16T07:56:15.888Z,99574.69
2023-03-16T07:58:47.693Z,99578.34
2023-03-16T08:01:17.185Z,99580.16
2023-03-16T08:03:45.973Z,99581.97
2023-03-16T08:06:14.696Z,99582.13
2023-03-16T08:08:44.856Z,99585.25
2023-03-16T08:11:23.899Z,99585.91
2023-03-16T08:14:05.548Z,99580.28
2023-03-16T08:17:08.565Z,99579.94
2023-03-16T08:19:37.967Z,99584.22
2023-03-16T08:22:09.374Z,99575.88
2023-03-16T08:24:43.976Z,99582.31
2023-03-16T08:27:16.196Z,99581.78
2023-03-16T08:29:53.370Z,99582.09
2023-03-16T08:32:24.947Z,99578.06
2023-03-16T08:34:53.869Z,99592.72
2023-03-16T08:37:24.180Z,99597.44
2023-03-16T08:39:56.997Z,99596.03
2023-03-16T08:42:25.921Z,99600.31
2023-03-16T08:45:00.962Z,99595.25
2023-03-16T08:47:32.893Z,99590.84
2023-03-16T08:50:02.329Z,99593.06
2023-03-16T08:52:31.823Z,99593.59
2023-03-16T08:55:04.093Z,99594.72
2023-03-16T08:57:33.911Z,99597.84
2023-03-16T09:00:08.931Z,99595.38
2023-03-16T09:02:38.804Z,99590.16
2023-03-16T09:05:10.219Z,99591.78
2023-03-16T09:07:40.121Z,99594.47
2023-03-16T09:10:15.446Z,99598.81
2023-03-16T09:12:45.028Z,99602.78
2023-03-16T09:15:14.966Z,99603.19
2023-03-16T09:17:45.274Z,99602.94
2023-03-16T09:20:22.784Z,99606.22
2023-03-16T09:22:56.077Z,99602.66
2023-03-16T09:25:26.693Z,99601.13
2023-03-16T09:27:55.785Z,99595.88
2023-03-16T09:30:24.736Z,99609.03
2023-03-16T09:32:53.467Z,99599.03
2023-03-16T09:35:22.310Z,99602.56
2023-03-16T09:38:05.605Z,99598.91
2023-03-16T09:40:39.664Z,99596.03
2023-03-16T09:43:49.433Z,99596.91
2023-03-16T09:46:28.513Z,99597.16
2023-03-16T09:48:59.304Z,99594.09
2023-03-16T09:51:40.507Z,99588.75
2023-03-16T09:54:24.449Z,99589.56
2023-03-16T09:57:19.360Z,99585.00
2023-03-16T10:00:49.177Z,99578.84
2023-03-16T10:04:31.199Z,99585.81
2023-03-16T10:07:20.138Z,99589.94
2023-03-16T10:09:58.698Z,99587.22
2023-03-16T10:12:41.525Z,99583.72
2023-03-16T10:15:15.453Z,99582.63
2023-03-16T10:17:51.649Z,99579.06
2023-03-16T10:20:23.889Z,99581.50
2023-03-16T10:22:55.739Z,99586.91
2023-03-16T10:25:32.304Z,99588.09
2023-03-16T10:28:02.404Z,99579.88
2023-03-16T10:30:36.248Z,99584.63
2023-03-16T10:33:19.768Z,99582.72
2023-03-16T10:35:52.786Z,99577.84
2023-03-16T10:38:33.025Z,99584.31
2023-03-16T10:41:02.203Z,99581.34
2023-03-16T10:43:32.308Z,99583.59
2023-03-16T10:46:03.581Z,99573.75
2023-03-16T10:48:34.985Z,99575.59
2023-03-16T10:51:10.244Z,99573.13
2023-03-16T10:53:44.689Z,99571.47
2023-03-16T10:56:20.979Z,99572.69
2023-03-16T10:58:51.686Z,99574.91
2023-03-16T11:01:26.906Z,99568.81
2023-03-16T11:03:58.289Z,99569.47
2023-03-16T11:06:31.518Z,99571.38
2023-03-16T11:09:08.839Z,99567.28
2023-03-16T11:11:38.481Z,99554.56
2023-03-16T11:14:15.438Z,99556.25
2023-03-16T11:16:50.990Z,99546.03
2023-03-16T11:19:24.876Z,99544.66
2023-03-16T11:21:59.952Z,99538.09
2023-03-16T11:24:42.350Z,99536.06
2023-03-16T11:27:23.249Z,99531.94
2023-03-16T11:30:16.795Z,99521.72
2023-03-16T11:32:53.317Z,99527.91
2023-03-16T11:35:31.013Z,99525.47
2023-03-16T11:38:15.416Z,99514.38
2023-03-16T11:40:58.609Z,99510.97
2023-03-16T11:43:54.086Z,99510.88
2023-03-16T11:46:27.487Z,99515.66
2023-03-16T11:49:27.246Z,99510.88
2023-03-16T11:52:06.548Z,99511.78
2023-03-16T11:54:55.083Z,99513.56
2023-03-16T11:57:43.778Z,99508.28
2023-03-16T12:00:29.047Z,99503.88
2023-03-16T12:03:28.848Z,99504.69
2023-03-16T12:06:17.113Z,99496.38
2023-03-16T12:09:39.440Z,99493.13
2023-03-16T12:12:29.536Z,99495.47
2023-03-16T12:15:21.433Z,99485.88
2023-03-16T12:17:55.156Z,99486.72
2023-03-16T12:20:31.724Z,99485.31
2023-03-16T12:23:07.883Z,99485.78
2023-03-16T12:25:42.920Z,99484.63
2023-03-16T12:28:23.760Z,99475.84
2023-03-16T12:31:09.408Z,99478.97
2023-03-16T12:33:55.295Z,99475.75
2023-03-16T12:37:15.461Z,99477.88
2023-03-16T12:40:24.650Z,99474.31
2023-03-16T12:43:10.803Z,99474.41
2023-03-16T12:45:49.400Z,99469.09
2023-03-16T12:48:29.964Z,99467.94
2023-03-16T12:51:03.229Z,99473.28
2023-03-16T12:53:46.044Z,99463.66
2023-03-16T12:56:18.858Z,99460.13
2023-03-16T12:58:50.818Z,99471.56
2023-03-16T13:01:28.312Z,99465.88
2023-03-16T13:04:07.448Z,99461.63
2023-03-16T13:06:38.724Z,99454.19
2023-03-16T13:09:09.754Z,99451.75
2023-03-16T13:11:50.449Z,99449.72
2023-03-16T13:14:38.346Z,99455.19
2023-03-16T13:17:25.520Z,99448.31
2023-03-16T13:20:06.759Z,99439.19
2023-03-16T13:22:47.123Z,99437.69
2023-03-16T13:25:25.667Z,99424.41
2023-03-16T13:27:58.309Z,99438.38
2023-03-16T13:30:32.812Z,99431.72
2023-03-16T13:33:11.332Z,99429.34
2023-03-16T13:35:41.164Z,99427.66
2023-03-16T13:38:16.949Z,99427.34
2023-03-16T13:40:54.514Z,99440.91
2023-03-16T13:43:27.982Z,99432.28
2023-03-16T13:45:57.676Z,99432.69
2023-03-16T13:48:26.760Z,99432.78
2023-03-16T13:50:58.782Z,99426.63
2023-03-16T13:53:32.940Z,99418.44
2023-03-16T13:56:04.442Z,99421.06
2023-03-16T13:58:39.771Z,99406.72
2023-03-16T14:01:26.100Z,99411.91
2023-03-16T14:03:59.581Z,99408.16
2023-03-16T14:06:34.293Z,99403.25
2023-03-16T14:09:08.143Z,99401.63
2023-03-16T14:11:38.714Z,99403.94
2023-03-16T14:14:17.768Z,99399.06
2023-03-16T14:16:46.605Z,99401.38
2023-03-16T14:19:24.641Z,99389.47
2023-03-16T14:21:53.542Z,99390.91
2023-03-16T14:24:34.956Z,99387.25
2023-03-16T14:27:21.937Z,99392.41
2023-03-16T14:30:04.521Z,99393.63
2023-03-16T14:32:35.133Z,99393.69
2023-03-16T14:35:23.447Z,99396.66
2023-03-16T14:37:52.913Z,99401.22
2023-03-16T14:40:31.917Z,99392.56
2023-03-16T14:43:06.448Z,99397.81
2023-03-16T14:45:38.034Z,99398.63
2023-03-16T14:48:18.270Z,99396.97
2023-03-16T14:50:49.192Z,99400.84
2023-03-16T14:53:18.224Z,99393.28
2023-03-16T14:55:47.595Z,99394.06
2023-03-16T14:58:18.552Z,99393.19
2023-03-16T15:00:53.076Z,99389.09
2023-03-16T15:03:30.373Z,99396.09
2023-03-16T15:06:00.386Z,99399.56
2023-03-16T15:08:34.532Z,99388.13
2023-03-16T15:11:08.136Z,99383.00
2023-03-16T15:13:59.586Z,99367.00
2023-03-16T15:16:30.919Z,99373.44
2023-03-16T15:19:03.296Z,99371.84
2023-03-16T15:22:25.282Z,99373.13
2023-03-16T15:24:58.229Z,99374.38
2023-03-16T15:27:35.046Z,99373.59
2023-03-16T15:30:31.337Z,99372.75
2023-03-16T15:33:07.496Z,99376.47
2023-03-16T15:35:37.793Z,99366.44
2023-03-16T15:38:15.195Z,99378.53
2023-03-16T15:40:47.961Z,99374.47
2023-03-16T15:43:20.730Z,99364.22
2023-03-16T15:45:52.376Z,99362.56
2023-03-16T15:48:24.767Z,99353.13
2023-03-16T15:50:57.412Z,99357.25
2023-03-16T15:53:31.877Z,99347.84
2023-03-16T15:56:05.731Z,99339.63
2023-03-16T15:58:38.136Z,99345.78
2023-03-16T16:01:09.026Z,99351.53
2023-03-16T16:03:39.176Z,99350.31
2023-03-16T16:06:12.336Z,99353.59
2023-03-16T16:11:34.908Z,99353.59
2023-03-16T16:14:11.731Z,99356.06
2023-03-16T16:16:48.401Z,99359.56
2023-03-16T16:19:19.845Z,99353.63
2023-03-16T16:21:53.739Z,99353.63
2023-03-16T16:24:25.395Z,99356.06
2023-03-16T16:26:57.983Z,99358.94
2023-03-16T16:29:35.588Z,99370.44
2023-03-16T16:32:25.157Z,99358.09
2023-03-16T16:35:04.274Z,99353.81
2023-03-16T16:37:38.601Z,99357.50
2023-03-16T16:40:21.342Z,99366.88
2023-03-16T16:42:55.202Z,99363.81
2023-03-16T16:45:32.742Z,99362.16
2023-03-16T16:48:08.190Z,99369.09
2023-03-16T16:50:39.857Z,99360.88
2023-03-16T16:53:31.908Z,99345.34
2023-03-16T16:56:03.035Z,99346.38
2023-03-16T16:58:35.626Z,99349.81
2023-03-16T17:01:12.807Z,99347.31
2023-03-16T17:03:53.146Z,99343.19
2023-03-16T17:06:36.839Z,99344.63
2023-03-16T17:09:10.831Z,99352.19
2023-03-16T17:11:45.430Z,99359.50
2023-03-16T17:14:21.987Z,99353.28
2023-03-16T17:17:17.988Z,99357.34
2023-03-16T17:19:48.692Z,99354.06
2023-03-16T17:22:25.489Z,99351.63
2023-03-16T17:24:55.179Z,99356.31
2023-03-16T17:27:33.140Z,99357.53
2023-03-16T17:30:04.583Z,99351.78
2023-03-16T17:32:52.215Z,99357.66
2023-03-16T17:35:22.750Z,99362.97
2023-03-16T17:37:51.745Z,99359.44
2023-03-16T17:40:23.745Z,99362.91
2023-03-16T17:42:55.432Z,99358.41
2023-03-16T17:45:28.768Z,99358.81
2023-03-16T17:48:00.685Z,99344.91
2023-03-16T17:50:31.484Z,99352.63
2023-03-16T17:53:03.179Z,99344.19
2023-03-16T17:55:32.355Z,99341.53
2023-03-16T17:58:02.301Z,99341.53
2023-03-16T18:00:34.309Z,99338.00
2023-03-16T18:03:05.799Z,99340.94
2023-03-16T18:05:38.408Z,99337.50
2023-03-16T18:08:17.118Z,99341.50
2023-03-16T18:10:49.568Z,99335.88
2023-03-16T18:13:24.169Z,99319.56
2023-03-16T18:15:53.908Z,99322.22
2023-03-16T18:18:26.368Z,99316.91
2023-03-16T18:21:01.876Z,99313.50
2023-03-16T18:23:33.600Z,99316.56
2023-03-16T18:26:04.424Z,99310.47
2023-03-16T18:28:34.454Z,99309.84
2023-03-16T18:31:06.026Z,99320.81
2023-03-16T18:33:39.431Z,99314.72
2023-03-16T18:36:18.230Z,99312.50
2023-03-16T18:38:50.653Z,99305.78
2023-03-16T18:41:22.914Z,99314.13
2023-03-16T18:43:53.491Z,99318.03
2023-03-16T18:46:29.062Z,99309.72
2023-03-16T18:49:06.337Z,99305.00
2023-03-16T18:51:41.501Z,99303.75
2023-03-16T18:54:24.471Z,99290.72
2023-03-16T18:56:54.133Z,99294.78
2023-03-16T18:59:23.386Z,99291.53
2023-03-16T19:01:53.134Z,99298.44
2023-03-16T19:04:26.003Z,99299.25
2023-03-16T19:06:58.500Z,99312.50
2023-03-16T19:09:30.476Z,99314.28
2023-03-16T19:12:00.350Z,99309.28
2023-03-16T19:14:34.839Z,99310.84
2023-03-16T19:17:03.729Z,99306.97
2023-03-16T19:19:32.478Z,99306.16
2023-03-16T19:22:09.930Z,99298.75
2023-03-16T19:24:49.974Z,99295.13
2023-03-16T19:27:28.120Z,99293.53
2023-03-16T19:30:02.577Z,99283.72
2023-03-16T19:32:41.784Z,99291.88
2023-03-16T19:35:17.363Z,99284.03
2023-03-16T19:38:55.338Z,99277.09
2023-03-16T19:41:30.970Z,99281.97
2023-03-16T19:44:10.114Z,99274.59
2023-03-16T19:51:14.686Z,99277.28
2023-03-16T19:53:45.774Z,99282.97
2023-03-16T19:56:17.100Z,99279.31
2023-03-16T19:58:53.890Z,99275.00
2023-03-16T20:01:26.701Z,99282.66
2023-03-16T20:03:55.478Z,99282.59
2023-03-16T20:06:25.658Z,99285.69
2023-03-16T20:08:55.961Z,99297.94
2023-03-16T20:11:31.551Z,99288.59
2023-03-16T20:14:03.598Z,99278.78
2023-03-16T20:16:36.044Z,99280.19
2023-03-16T20:19:14.081Z,99272.66
2023-03-16T20:21:43.400Z,99279.19
2023-03-16T20:24:19.945Z,99277.16
2023-03-16T20:26:51.649Z,99274.50
2023-03-16T20:29:29.796Z,99271.84
2023-03-16T20:31:59.112Z,99266.53
2023-03-16T20:34:32.247Z,99279.19
2023-03-16T20:37:01.978Z,99272.50
2023-03-16T20:39:32.485Z,99270.22
2023-03-16T20:42:01.474Z,99270.84
2023-03-16T20:44:32.327Z,99270.59
2023-03-16T20:47:02.551Z,99268.38
2023-03-16T20:49:34.164Z,99258.78
2023-03-16T20:52:04.010Z,99252.88
2023-03-16T20:54:34.553Z,99254.28
2023-03-16T20:57:03.705Z,99250.09
2023-03-16T20:59:33.159Z,99258.94
2023-03-16T21:02:03.278Z,99255.06
2023-03-16T21:04:31.975Z,99255.13
2023-03-16T21:07:00.616Z,99260.22
2023-03-16T21:09:31.927Z,99246.69
2023-03-16T21:12:02.144Z,99237.09
2023-03-16T21:14:31.599Z,99240.16
2023-03-16T21:17:00.665Z,99238.75
2023-03-16T21:19:30.114Z,99244.03
2023-03-16T21:21:58.738Z,99235.56
2023-03-16T21:24:27.362Z,99229.63
2023-03-16T21:26:56.062Z,99226.31
2023-03-16T21:29:26.392Z,99230.47
2023-03-16T21:31:55.435Z,99229.13
2023-03-16T21:34:30.474Z,99221.88
2023-03-16T21:36:59.428Z,99218.97
2023-03-16T21:39:31.263Z,99220.09
2023-03-16T21:41:59.957Z,99219.16
2023-03-16T21:44:30.036Z,99222.63
2023-03-16T21:46:58.827Z,99223.38
2023-03-16T21:49:27.590Z,99212.66
2023-03-16T21:51:56.776Z,99221.81
2023-03-16T21:54:25.518Z,99223.38
2023-03-16T21:56:54.221Z,99222.19
2023-03-16T21:59:23.907Z,99216.72
2023-03-16T22:02:06.908Z,99221.94
2023-03-16T22:04:35.693Z,99212.69
2023-03-16T22:07:04.354Z,99212.06
2023-03-16T22:09:33.278Z,99204.31
2023-03-16T22:12:01.908Z,99208.06
2023-03-16T22:14:30.525Z,99200.19
2023-03-16T22:17:00.681Z,99189.28
2023-03-16T22:19:29.674Z,99194.28
2023-03-16T22:21:58.798Z,99193.91
2023-03-16T22:24:31.407Z,99187.44
2023-03-16T22:27:01.000Z,99191.63
2023-03-16T22:29:31.773Z,99175.38
2023-03-16T22:32:08.612Z,99178.28
2023-03-16T22:34:45.249Z,99179.00
2023-03-16T22:37:19.553Z,99177.00
2023-03-16T22:39:49.669Z,99164.25
2023-03-16T22:42:29.231Z,99156.38
2023-03-16T22:44:58.307Z,99157.19
2023-03-16T22:47:32.362Z,99145.22
2023-03-16T22:50:02.003Z,99147.41
2023-03-16T22:52:36.239Z,99144.69
2023-03-16T22:55:08.832Z,99142.84
2023-03-16T22:57:37.521Z,99141.47
2023-03-16T23:00:11.268Z,99145.22
2023-03-16T23:02:42.823Z,99130.25
2023-03-16T23:05:24.414Z,99124.41
2023-03-16T23:07:54.412Z,99124.06
2023-03-16T23:10:28.413Z,99121.47
2023-03-16T23:13:00.699Z,99127.31
2023-03-16T23:15:31.979Z,99125.28
2023-03-16T23:18:02.318Z,99128.13
2023-03-16T23:20:33.608Z,99133.91
2023-03-16T23:23:02.348Z,99145.84
2023-03-16T23:25:31.262Z,99132.03
2023-03-16T23:28:02.803Z,99136.88
2023-03-16T23:30:32.256Z,99142.63
2023-03-16T23:33:02.845Z,99138.53
2023-03-16T23:35:33.116Z,99137.78
2023-03-16T23:38:02.207Z,99128.00
2023-03-16T23:40:32.036Z,99129.84
2023-03-16T23:43:02.235Z,99123.81
2023-03-16T23:45:38.749Z,99120.09
2023-03-16T23:48:16.896Z,99119.53
2023-03-16T23:50:48.870Z,99118.91
2023-03-16T23:53:19.968Z,99121.34
2023-03-16T23:55:49.548Z,99115.03
2023-03-16T23:58:18.590Z,99108.75
